Latest Coastal Weather Observations for Cape Otway

IDT60701

Issued at 3:03 pm EST Thursday 30 June 2016 (issued every 10 minutes, with the page automatically refreshed every 10 minutes)

About coastal observations | Map of coastal stations | Coastal observations for TAS | Marine services | Other Formats
Station Details ID: 090015 Name: CAPE OTWAY LIGHTHOUSE Lat: -38.86 Lon: 143.51 Height: 82.0 m
Data from the previous 72 hours. | See also: Recent months at Cape Otway
Date/Time
EST
Temp
°C
Wind Pressure Rain since
9am
mm
Weather Cloud Vis
km
Sea
Height
m
Swell
Dir  Spd
kts
Gust
kts
hPa Trend Height
m
Period
s
Dir
30/03:00pm 8.7 NW 15 21 1002.8 - 1.6 - - - - - - -
30/02:30pm 9.0 NW 17 26 1002.7 - 1.6 - - - - - - -
30/02:15pm 9.2 WNW 20 30 1003.1 - 1.4 - - - - - - -
30/02:11pm 9.8 WNW 20 29 1002.8 - 1.0 - - - - - - -
30/02:01pm 10.2 NNW 16 27 1002.5 - 0.2 - - - - - - -
30/02:00pm 10.4 NNW 16 25 1002.5 - 0.2 - - - - - - -
30/01:34pm 10.6 NNW 18 28 1002.4 - 0.2 - - - - - - -
30/01:30pm 10.8 NNW 19 28 1002.3 - 0.2 - - - - - - -
30/01:00pm 10.8 NNW 21 33 1002.4 - 0.2 - - - - - - -
30/12:30pm 9.8 N 19 30 1002.8 - 0.2 - - - - - - -
30/12:00pm 9.5 N 17 27 1003.6 - 0.2 - - - - - - -
30/11:30am 9.7 N 21 32 1004.2 - 0.2 - - - - - - -
30/11:00am 10.3 N 19 33 1004.7 - 0.0 - - - - - - -
30/10:30am 10.1 N 21 34 1004.6 - 0.0 - - - - - - -
30/10:00am 10.5 N 22 34 1005.2 - 0.0 - - - - - - -
30/09:42am 10.4 N 17 28 1005.4 - 0.0 - - - - - - -
30/09:30am 10.2 N 18 27 1005.7 - 0.0 - - - - - - -
30/09:00am 9.4 N 18 31 1005.6 - 0.4 - - - - - - -
30/08:30am 8.9 N 21 33 1005.3 - 0.4 - - - - - - -
30/08:02am 8.8 N 19 33 1006.0 - 0.4 - - - - - - -
30/08:00am 8.8 N 19 27 1006.1 - 0.4 - - - - - - -
30/07:30am 9.3 N 18 29 1006.4 - 0.0 - - - - - - -
30/07:01am 9.8 N 16 28 1006.7 - 0.0 - - - - - - -
30/07:00am 9.8 N 16 24 1006.7 - 0.0 - - - - - - -
30/06:46am 10.0 N 16 27 1006.8 - 0.0 - - - - - - -
30/06:30am 10.2 N 14 23 1007.2 - 0.0 - - - - - - -
30/06:00am 10.1 N 15 28 1007.6 - 0.0 - - - - - - -
30/05:30am 10.3 N 16 29 1007.7 - 0.0 - - - - - - -
30/05:00am 10.2 N 17 30 1007.9 - 0.0 - - - - - - -
30/04:54am 10.4 N 15 29 1008.1 - 0.0 - - - - - - -
30/04:30am 10.5 N 16 23 1008.7 - 0.0 - - - - - - -
30/04:00am 10.8 N 16 29 1009.5 - 0.0 - - - - - - -
30/03:30am 10.9 N 16 26 1009.9 - 0.0 - - - - - - -
30/03:00am 11.0 N 16 30 1010.4 - 0.0 - - - - - - -
30/02:30am 11.1 N 21 31 1010.0 - 0.0 - - - - - - -
30/02:00am 11.2 N 20 32 1010.7 - 0.0 - - - - - - -
30/01:30am 11.3 N 22 35 1011.1 - 0.0 - - - - - - -
30/01:00am 11.3 N 19 31 1011.8 - 0.0 - - - - - - -
30/12:30am 11.3 N 15 27 1012.9 - 0.0 - - - - - - -
30/12:09am 11.3 N 15 25 1013.3 - 0.0 - - - - - - -
30/12:00am 11.2 N 15 23 1013.7 - 0.0 - - - - - - -
 
Date/Time
EST
Temp
°C
Wind Pressure Rain since
9am
mm
Weather Cloud Vis
km
Sea
Height
m
Swell
Dir  Spd
kts
Gust
kts
hPa Trend Height
m
Period
s
Dir
29/11:30pm 11.2 N 14 22 1014.2 - 0.0 - - - - - - -
29/11:26pm 11.3 N 15 29 1014.3 - 0.0 - - - - - - -
29/11:00pm 11.4 N 12 21 1015.0 - 0.0 - - - - - - -
29/10:30pm 11.3 N 12 20 1015.7 - 0.0 - - - - - - -
29/10:00pm 11.2 N 11 18 1016.6 - 0.0 - - - - - - -
29/09:30pm 11.1 N 8 17 1017.3 - 0.0 - - - - - - -
29/09:00pm 11.1 N 8 14 1017.6 - 0.0 - - - - - - -
29/08:30pm 10.5 N 7 12 1017.7 - 0.0 - - - - - - -
29/08:00pm 10.1 N 6 10 1018.2 - 0.0 - - - - - - -
29/07:30pm 10.6 N 7 14 1018.0 - 0.0 - - - - - - -
29/07:00pm 10.9 N 6 13 1018.1 - 0.0 - - - - - - -
29/06:30pm 10.7 N 5 9 1018.3 - 0.0 - - - - - - -
29/06:00pm 11.3 N 9 15 1018.4 - 0.0 - - - - - - -
29/05:30pm 11.4 N 11 17 1018.5 - 0.0 - - - - - - -
29/05:00pm 11.7 N 9 16 1018.8 - 0.0 - - - - - - -
29/04:30pm 12.6 NNW 12 19 1019.2 - 0.0 - - - - - - -
29/04:00pm 13.1 N 11 18 1019.5 - 0.0 - - - - - - -
29/03:30pm 13.2 NNW 10 16 1019.9 - 0.0 - - - - - - -
29/03:00pm 13.4 NNW 9 18 1020.3 - 0.0 - - - - - - -
29/02:30pm 14.0 N 12 21 1020.6 - 0.0 - - - - - - -
29/02:00pm 13.9 NNW 10 20 1020.9 - 0.0 - - - - - - -
29/01:30pm 14.0 NNW 10 19 1021.5 - 0.0 - - - - - - -
29/01:00pm 14.1 NNW 10 16 1022.0 - 0.0 - - - - - - -
29/12:30pm 13.9 NW 10 16 1022.5 - 0.0 - - - - - - -
29/12:00pm 14.1 NNW 9 16 1023.4 - 0.0 - - - - - - -
29/11:30am 12.8 NNW 10 15 1023.7 - 0.0 - - - - - - -
29/11:00am 13.2 NNW 12 20 1024.1 - 0.0 - - - - - - -
29/10:30am 13.1 NNW 12 19 1024.2 - 0.0 - - - - - - -
29/10:00am 11.9 NNW 12 17 1024.4 - 0.0 - - - - - - -
29/09:30am 11.6 NNW 11 17 1024.4 - 0.0 - - - - - - -
29/09:00am 11.1 N 11 15 1024.4 - 5.2 - - - - - - -
29/08:30am 10.3 N 11 16 1024.0 - 5.2 - - - - - - -
29/08:00am 9.8 NNW 11 14 1023.9 - 5.2 - - - - - - -
29/07:30am 9.7 NNW 11 14 1023.8 - 5.2 - - - - - - -
29/07:00am 9.8 N 11 15 1023.8 - 5.2 - - - - - - -
29/06:30am 10.1 NNW 11 15 1023.8 - 5.2 - - - - - - -
29/06:00am 10.4 NNW 11 14 1023.6 - 5.2 - - - - - - -
29/05:30am 10.8 NNW 10 15 1023.5 - 5.2 - - - - - - -
29/05:00am 10.6 NW 10 15 1023.5 - 5.2 - - - - - - -
29/04:30am 10.9 NNW 13 18 1023.3 - 5.2 - - - - - - -
29/04:00am 10.8 NNW 11 16 1023.3 - 5.2 - - - - - - -
29/03:30am 11.1 NNW 11 16 1023.4 - 5.2 - - - - - - -
29/03:00am 10.9 NNW 11 16 1023.4 - 5.2 - - - - - - -
29/02:30am 10.7 NNW 12 17 1023.4 - 5.2 - - - - - - -
29/02:00am 10.8 NNW 11 16 1023.5 - 5.2 - - - - - - -
29/01:30am 11.2 NNW 11 15 1023.4 - 5.2 - - - - - - -
29/01:00am 11.7 NNW 13 18 1023.6 - 5.2 - - - - - - -
29/12:30am 11.5 NW 10 15 1023.7 - 5.2 - - - - - - -
29/12:00am 11.6 NW 12 19 1023.9 - 5.2 - - - - - - -
 
Date/Time
EST
Temp
°C
Wind Pressure Rain since
9am
mm
Weather Cloud Vis
km
Sea
Height
m
Swell
Dir  Spd
kts
Gust
kts
hPa Trend Height
m
Period
s
Dir
28/11:30pm 11.7 NNW 13 20 1023.8 - 5.2 - - - - - - -
28/11:00pm 11.6 NNW 10 15 1023.9 - 5.2 - - - - - - -
28/10:30pm 12.0 NW 13 23 1024.1 - 5.2 - - - - - - -
28/10:00pm 12.1 NW 13 21 1024.0 - 5.0 - - - - - - -
28/09:30pm 11.7 NNW 11 17 1024.0 - 5.0 - - - - - - -
28/09:00pm 11.4 NNW 10 13 1023.9 - 5.0 - - - - - - -
28/08:30pm 11.4 W 12 20 1024.0 - 4.8 - - - - - - -
28/08:00pm 12.0 NW 12 18 1023.4 - 1.0 - - - - - - -
28/07:30pm 12.1 NW 12 18 1023.3 - 1.0 - - - - - - -
28/07:00pm 12.3 NW 12 19 1023.0 - 1.0 - - - - - - -
28/06:30pm 12.5 NW 11 17 1022.8 - 1.0 - - - - - - -
28/06:00pm 12.9 NW 11 17 1022.9 - 0.2 - - - - - - -
28/05:30pm 12.9 NW 11 18 1022.4 - 0.0 - - - - - - -
28/05:00pm 13.2 NW 11 16 1022.1 - 0.0 - - - - - - -
28/04:30pm 13.6 WNW 13 22 1021.9 - 0.0 - - - - - - -
28/04:00pm 13.9 WNW 17 23 1021.8 - 0.0 - - - - - - -
28/03:30pm 14.0 WNW 16 23 1021.6 - 0.0 - - - - - - -
28/03:00pm 14.4 WNW 17 22 1021.5 - 0.0 - - - - - - -
28/02:30pm 14.4 WNW 16 23 1021.4 - 0.0 - - - - - - -
28/02:00pm 14.1 WNW 16 24 1021.3 - 0.0 - - - - - - -
28/01:30pm 14.0 WNW 17 23 1021.4 - 0.0 - - - - - - -
28/01:00pm 13.6 WNW 15 20 1021.6 - 0.0 - - - - - - -
28/12:30pm 13.3 NW 13 20 1021.7 - 0.0 - - - - - - -
28/12:00pm 12.1 NW 15 23 1021.9 - 0.0 - - - - - - -
28/11:30am 12.4 NW 15 23 1022.0 - 0.0 - - - - - - -
28/11:07am 11.9 WNW 16 26 1022.2 - 0.0 - - - - - - -
28/11:00am 11.6 NW 14 24 1022.2 - 0.0 - - - - - - -
28/10:30am 11.3 NW 15 22 1022.0 - 0.0 - - - - - - -
28/10:00am 11.2 NW 15 22 1021.8 - 0.0 - - - - - - -
28/09:30am 10.9 NW 14 23 1021.6 - 0.0 - - - - - - -
28/09:00am 11.3 WNW 14 21 1021.4 - 0.0 - - - - - - -
28/08:30am 10.7 NW 13 19 1020.7 - 0.0 - - - - - - -
28/08:00am 11.2 NW 16 25 1020.5 - 0.0 - - - - - - -
28/07:47am 11.2 NW 15 25 1020.4 - 0.0 - - - - - - -
28/07:30am 11.2 NW 15 21 1020.1 - 0.0 - - - - - - -
28/07:13am 11.0 NW 15 26 1020.0 - 0.0 - - - - - - -
28/07:00am 10.9 NW 14 22 1019.9 - 0.0 - - - - - - -
28/06:30am 10.9 NW 15 22 1019.6 - 0.0 - - - - - - -
28/06:00am 10.7 NW 15 23 1019.5 - 0.0 - - - - - - -
28/05:30am 10.6 NW 15 22 1019.0 - 0.0 - - - - - - -
28/05:01am 10.8 NW 16 26 1018.9 - 0.0 - - - - - - -
28/05:00am 10.9 NW 17 26 1018.9 - 0.0 - - - - - - -
28/04:31am 11.0 NW 15 25 1018.8 - 0.0 - - - - - - -
28/04:30am 11.0 NW 16 25 1018.8 - 0.0 - - - - - - -
28/04:00am 11.0 NW 15 23 1018.8 - 0.0 - - - - - - -
28/03:30am 11.0 NW 15 22 1019.0 - 0.0 - - - - - - -
28/03:00am 11.1 NW 16 23 1019.1 - 0.0 - - - - - - -
28/02:30am 10.5 NW 14 23 1018.9 - 0.0 - - - - - - -
28/02:00am 10.5 NW 13 22 1018.8 - 0.0 - - - - - - -
28/01:30am 10.7 NW 14 22 1018.8 - 0.0 - - - - - - -
28/01:21am 10.6 NW 15 25 1018.8 - 0.0 - - - - - - -
28/01:00am 10.6 NW 15 23 1018.9 - 0.0 - - - - - - -
28/12:35am 10.6 NW 15 25 1019.0 - 0.0 - - - - - - -
28/12:30am 10.7 NW 17 25 1019.0 - 0.0 - - - - - - -
28/12:13am 10.8 NW 16 27 1019.0 - 0.0 - - - - - - -
28/12:00am 10.9 NW 17 26 1019.0 - 0.0 - - - - - - -
 
Date/Time
EST
Temp
°C
Wind Pressure Rain since
9am
mm
Weather Cloud Vis
km
Sea
Height
m
Swell
Dir  Spd
kts
Gust
kts
hPa Trend Height
m
Period
s
Dir
27/11:48pm 10.9 NW 15 25 1018.9 - 0.0 - - - - - - -
27/11:30pm 10.7 NW 14 23 1019.0 - 0.0 - - - - - - -
27/11:00pm 10.6 NW 11 17 1019.0 - 0.0 - - - - - - -
27/10:30pm 10.5 NW 13 19 1019.1 - 0.0 - - - - - - -
27/10:00pm 10.1 NW 10 16 1018.9 - 0.0 - - - - - - -
27/09:30pm 10.6 NW 13 19 1018.9 - 0.0 - - - - - - -
27/09:00pm 10.6 NW 12 19 1019.0 - 0.0 - - - - - - -
27/08:30pm 10.8 NW 13 19 1018.7 - 0.0 - - - - - - -
27/08:00pm 9.9 NW 10 15 1018.6 - 0.0 - - - - - - -
27/07:30pm 10.0 NW 9 13 1018.4 - 0.0 - - - - - - -
27/07:00pm 10.9 NW 11 18 1018.1 - 0.0 - - - - - - -
27/06:30pm 11.1 NW 11 19 1017.8 - 0.0 - - - - - - -
27/06:00pm 11.2 NW 12 17 1017.8 - 0.0 - - - - - - -
27/05:30pm 11.3 NW 10 15 1017.3 - 0.0 - - - - - - -
27/05:00pm 11.7 WNW 12 18 1017.1 - 0.0 - - - - - - -
27/04:30pm 12.5 W 15 22 1016.8 - 0.0 - - - - - - -
27/04:00pm 12.3 W 16 21 1016.6 - 0.0 - - - - - - -
27/03:30pm 12.6 W 14 19 1016.5 - 0.0 - - - - - - -

Other Formats:

Comma delimited format used in spreadsheet applications
http://www.bom.gov.au/fwo/IDT60701/IDT60701.94842.axf

JavaScript Object Notation format (JSON) in row-major order
http://www.bom.gov.au/fwo/IDT60701/IDT60701.94842.json